createdAt,value
2022-08-22T00:01:52.018Z,2.97
2022-08-22T00:03:01.582Z,2.83
2022-08-22T00:03:02.940Z,3.42
2022-08-22T00:04:41.557Z,3.50
2022-08-22T00:07:16.655Z,3.53
2022-08-22T00:09:42.991Z,3.53
2022-08-22T00:12:15.206Z,3.65
2022-08-22T00:14:46.147Z,3.20
2022-08-22T00:17:21.908Z,3.40
2022-08-22T00:19:48.181Z,3.42
2022-08-22T00:22:29.492Z,3.85
2022-08-22T00:25:02.786Z,3.83
2022-08-22T00:27:34.065Z,3.20
2022-08-22T00:30:05.635Z,3.47
2022-08-22T00:32:36.908Z,3.20
2022-08-22T00:35:11.448Z,3.75
2022-08-22T00:37:40.901Z,3.15
2022-08-22T00:40:30.417Z,4.03
2022-08-22T00:43:02.719Z,3.05
2022-08-22T00:45:55.124Z,3.22
2022-08-22T00:48:40.454Z,3.17
2022-08-22T00:51:27.093Z,2.83
2022-08-22T00:54:00.934Z,3.50
2022-08-22T00:56:39.118Z,2.97
2022-08-22T00:59:23.444Z,3.90
2022-08-22T01:02:01.451Z,3.63
2022-08-22T01:04:33.713Z,3.00
2022-08-22T01:07:38.102Z,2.55
2022-08-22T01:10:14.677Z,3.90
2022-08-22T01:13:04.047Z,3.45
2022-08-22T01:15:34.020Z,3.00
2022-08-22T01:18:11.650Z,3.05
2022-08-22T01:20:55.307Z,3.42
2022-08-22T01:23:21.587Z,3.28
2022-08-22T01:25:58.285Z,3.78
2022-08-22T01:28:47.926Z,3.45
2022-08-22T01:31:14.229Z,3.17
2022-08-22T01:33:46.298Z,3.20
2022-08-22T01:36:31.507Z,2.83
2022-08-22T01:38:57.828Z,3.88
2022-08-22T01:41:43.661Z,3.58
2022-08-22T01:44:17.892Z,3.50
2022-08-22T01:46:51.722Z,3.75
2022-08-22T01:49:17.993Z,3.40
2022-08-22T01:51:53.646Z,3.53
2022-08-22T01:54:39.586Z,3.42
2022-08-22T01:57:08.111Z,3.80
2022-08-22T01:59:34.426Z,4.47
2022-08-22T02:02:12.142Z,3.35
2022-08-22T02:04:41.918Z,3.08
2022-08-22T02:07:14.638Z,3.60
2022-08-22T02:10:03.322Z,3.55
2022-08-22T02:12:37.283Z,4.90
2022-08-22T02:15:07.514Z,3.88
2022-08-22T02:17:50.354Z,4.07
2022-08-22T02:20:35.142Z,3.58
2022-08-22T02:23:07.598Z,3.58
2022-08-22T02:28:06.749Z,4.25
2022-08-22T02:30:51.585Z,3.15
2022-08-22T02:33:36.688Z,3.70
2022-08-22T02:36:06.066Z,3.90
2022-08-22T02:38:38.623Z,3.60
2022-08-22T02:41:05.076Z,4.13
2022-08-22T02:43:45.127Z,3.60
2022-08-22T02:46:18.787Z,3.50
2022-08-22T02:48:51.412Z,3.45
2022-08-22T02:51:36.360Z,3.30
2022-08-22T02:54:20.498Z,3.40
2022-08-22T02:56:52.623Z,3.30
2022-08-22T02:59:31.875Z,3.13
2022-08-22T03:02:18.517Z,3.30
2022-08-22T03:04:47.143Z,4.53
2022-08-22T03:07:13.418Z,3.55
2022-08-22T03:09:45.578Z,3.63
2022-08-22T03:12:15.509Z,3.95
2022-08-22T03:15:00.024Z,4.07
2022-08-22T03:17:33.087Z,3.15
2022-08-22T03:20:04.729Z,3.90
2022-08-22T03:22:35.212Z,3.53
2022-08-22T03:25:21.850Z,3.33
2022-08-22T03:28:00.743Z,3.20
2022-08-22T03:30:41.262Z,3.45
2022-08-22T03:33:13.454Z,3.55
2022-08-22T03:35:45.914Z,3.80
2022-08-22T03:40:45.274Z,3.88
2022-08-22T03:43:30.020Z,3.30
2022-08-22T03:46:17.819Z,3.78
2022-08-22T03:49:03.572Z,4.15
2022-08-22T03:51:45.162Z,3.70
2022-08-22T03:54:34.783Z,4.05
2022-08-22T03:57:06.291Z,4.05
2022-08-22T03:59:35.599Z,3.93
2022-08-22T04:02:41.950Z,4.05
2022-08-22T04:05:18.165Z,3.72
2022-08-22T04:08:01.453Z,3.80
2022-08-22T04:10:47.155Z,4.03
2022-08-22T04:13:25.732Z,2.97
2022-08-22T04:16:10.655Z,3.92
2022-08-22T04:18:45.678Z,4.22
2022-08-22T04:21:14.947Z,3.80
2022-08-22T04:23:49.651Z,3.95
2022-08-22T04:26:21.831Z,3.95
2022-08-22T04:28:50.767Z,4.13
2022-08-22T04:31:27.880Z,4.20
2022-08-22T04:33:57.554Z,4.63
2022-08-22T04:36:35.220Z,4.38
2022-08-22T04:39:12.251Z,4.38
2022-08-22T04:41:38.530Z,3.97
2022-08-22T04:44:13.468Z,4.15
2022-08-22T04:46:45.815Z,4.68
2022-08-22T04:49:12.102Z,4.40
2022-08-22T04:51:40.357Z,4.47
2022-08-22T04:54:13.741Z,4.03
2022-08-22T04:57:06.038Z,4.85
2022-08-22T04:59:33.814Z,5.05
2022-08-22T05:02:06.635Z,4.35
2022-08-22T05:04:38.589Z,5.15
2022-08-22T05:07:11.937Z,4.38
2022-08-22T05:09:41.402Z,5.07
2022-08-22T05:12:11.833Z,4.57
2022-08-22T05:14:40.987Z,4.50
2022-08-22T05:17:08.994Z,4.88
2022-08-22T05:19:37.244Z,4.63
2022-08-22T05:22:10.382Z,4.93
2022-08-22T05:24:39.462Z,4.50
2022-08-22T05:27:14.099Z,4.32
2022-08-22T05:29:42.178Z,4.43
2022-08-22T05:32:12.518Z,5.07
2022-08-22T05:34:40.351Z,4.97
2022-08-22T05:37:11.162Z,4.57
2022-08-22T05:39:38.553Z,5.18
2022-08-22T05:42:05.146Z,4.55
2022-08-22T05:44:36.439Z,4.45
2022-08-22T05:47:05.590Z,4.82
2022-08-22T05:49:47.993Z,3.55
2022-08-22T05:52:22.600Z,3.88
2022-08-22T05:55:02.362Z,4.88
2022-08-22T05:57:30.485Z,5.80
2022-08-22T06:00:00.750Z,4.53
2022-08-22T06:02:38.955Z,4.18
2022-08-22T06:05:11.394Z,5.50
2022-08-22T06:07:46.115Z,4.70
2022-08-22T06:10:13.778Z,4.13
2022-08-22T06:12:43.757Z,4.50
2022-08-22T06:15:12.865Z,5.03
2022-08-22T06:17:49.556Z,4.40
2022-08-22T06:20:20.984Z,5.55
2022-08-22T06:22:52.762Z,5.35
2022-08-22T06:25:24.643Z,4.32
2022-08-22T06:27:52.132Z,4.57
2022-08-22T06:30:18.961Z,5.45
2022-08-22T06:32:59.836Z,7.32
2022-08-22T06:35:52.836Z,5.60
2022-08-22T06:38:20.214Z,6.43
2022-08-22T06:40:47.032Z,5.30
2022-08-22T06:43:13.409Z,5.43
2022-08-22T06:45:40.575Z,6.15
2022-08-22T06:48:07.249Z,5.40
2022-08-22T06:50:36.290Z,6.72
2022-08-22T06:53:05.907Z,7.40
2022-08-22T06:55:33.283Z,5.40
2022-08-22T06:58:05.154Z,6.93
2022-08-22T07:00:33.580Z,6.22
2022-08-22T07:03:26.086Z,6.40
2022-08-22T07:05:54.475Z,6.20
2022-08-22T07:08:22.851Z,5.45
2022-08-22T07:11:15.578Z,4.70
2022-08-22T07:16:08.836Z,5.65
2022-08-22T07:18:45.282Z,5.32
2022-08-22T07:21:11.605Z,5.95
2022-08-22T07:23:40.399Z,5.25
2022-08-22T07:26:09.459Z,6.20
2022-08-22T07:28:51.416Z,5.90
2022-08-22T07:31:37.149Z,6.18
2022-08-22T07:34:23.519Z,5.18
2022-08-22T07:36:53.506Z,5.60
2022-08-22T07:39:23.694Z,6.32
2022-08-22T07:41:56.486Z,5.38
2022-08-22T07:44:23.799Z,5.20
2022-08-22T07:46:56.218Z,5.38
2022-08-22T07:49:26.451Z,5.10
2022-08-22T07:51:53.906Z,5.75
2022-08-22T07:54:41.470Z,5.20
2022-08-22T07:57:10.866Z,4.97
2022-08-22T07:59:38.888Z,5.93
2022-08-22T08:02:07.918Z,5.53
2022-08-22T08:04:40.155Z,6.05
2022-08-22T08:07:08.458Z,6.07
2022-08-22T08:09:38.573Z,6.22
2022-08-22T08:12:05.885Z,5.68
2022-08-22T08:14:33.190Z,4.97
2022-08-22T08:17:10.885Z,6.18
2022-08-22T08:19:39.730Z,5.55
2022-08-22T08:22:06.264Z,5.13
2022-08-22T08:24:40.779Z,5.32
2022-08-22T08:27:39.482Z,5.05
2022-08-22T08:30:15.089Z,5.13
2022-08-22T08:32:42.736Z,4.80
2022-08-22T08:35:17.107Z,5.00
2022-08-22T08:37:56.463Z,4.22
2022-08-22T08:40:32.638Z,4.88
2022-08-22T08:43:20.559Z,4.65
2022-08-22T08:46:06.955Z,5.07
2022-08-22T08:48:36.311Z,5.25
2022-08-22T08:51:05.776Z,4.90
2022-08-22T08:53:32.356Z,4.50
2022-08-22T08:56:03.347Z,4.50
2022-08-22T08:58:48.844Z,5.47
2022-08-22T09:01:29.927Z,5.35
2022-08-22T09:04:15.635Z,5.20
2022-08-22T09:06:42.428Z,4.63
2022-08-22T09:09:08.988Z,4.10
2022-08-22T09:11:38.611Z,4.18
2022-08-22T09:14:32.770Z,4.18
2022-08-22T09:17:03.483Z,3.92
2022-08-22T09:20:02.298Z,4.78
2022-08-22T09:23:20.123Z,3.83
2022-08-22T09:26:00.993Z,4.38
2022-08-22T09:28:29.874Z,4.22
2022-08-22T09:31:02.537Z,4.93
2022-08-22T09:33:52.662Z,4.53
2022-08-22T09:36:22.072Z,4.63
2022-08-22T09:38:53.800Z,4.10
2022-08-22T09:41:26.313Z,4.10
2022-08-22T09:44:01.727Z,4.50
2022-08-22T09:46:37.022Z,3.90
2022-08-22T09:49:22.250Z,4.15
2022-08-22T09:52:14.288Z,4.30
2022-08-22T09:54:46.645Z,4.25
2022-08-22T09:57:16.062Z,4.03
2022-08-22T09:59:52.069Z,3.45
2022-08-22T10:02:36.947Z,3.60
2022-08-22T10:05:39.523Z,4.03
2022-08-22T10:08:05.402Z,3.20
2022-08-22T10:10:42.179Z,3.42
2022-08-22T10:13:14.665Z,4.10
2022-08-22T10:15:54.774Z,3.92
2022-08-22T10:18:22.487Z,3.42
2022-08-22T10:21:14.298Z,2.70
2022-08-22T10:23:53.691Z,3.45
2022-08-22T10:26:29.375Z,3.67
2022-08-22T10:28:59.479Z,3.78
2022-08-22T10:31:59.039Z,2.80
2022-08-22T10:34:32.958Z,3.20
2022-08-22T10:37:10.640Z,3.38
2022-08-22T10:39:43.983Z,3.90
2022-08-22T10:42:25.203Z,3.30
2022-08-22T10:45:12.795Z,3.10
2022-08-22T10:48:03.106Z,2.80
2022-08-22T10:50:46.704Z,2.65
2022-08-22T10:53:33.165Z,2.80
2022-08-22T10:56:09.853Z,2.88
2022-08-22T10:58:44.088Z,3.40
2022-08-22T11:01:38.368Z,3.95
2022-08-22T11:04:16.703Z,3.72
2022-08-22T11:06:45.929Z,3.45
2022-08-22T11:09:15.063Z,3.20
2022-08-22T11:11:41.346Z,3.20
2022-08-22T11:14:07.632Z,3.47
2022-08-22T11:16:41.822Z,3.72
2022-08-22T11:19:28.764Z,3.67
2022-08-22T11:22:01.863Z,3.33
2022-08-22T11:24:55.890Z,3.20
2022-08-22T11:27:41.861Z,3.17
2022-08-22T11:30:11.575Z,2.53
2022-08-22T11:33:04.482Z,3.00
2022-08-22T11:35:58.543Z,3.22
2022-08-22T11:38:46.363Z,2.28
2022-08-22T11:41:35.812Z,2.90
2022-08-22T11:44:05.506Z,2.65
2022-08-22T11:46:33.833Z,3.08
2022-08-22T11:49:00.125Z,3.10
2022-08-22T11:51:46.558Z,2.83
2022-08-22T11:54:21.703Z,3.45
2022-08-22T11:57:08.829Z,2.45
2022-08-22T11:59:40.990Z,2.72
2022-08-22T12:02:17.293Z,2.88
2022-08-22T12:04:53.019Z,2.88
2022-08-22T12:07:39.286Z,2.92
2022-08-22T12:10:13.506Z,2.95
2022-08-22T12:13:01.583Z,3.35
2022-08-22T12:15:35.225Z,2.90
2022-08-22T12:18:04.581Z,3.35
2022-08-22T12:23:18.102Z,3.00
2022-08-22T12:25:47.214Z,3.33
2022-08-22T12:28:28.557Z,2.65
2022-08-22T12:31:03.734Z,2.45
2022-08-22T12:33:41.982Z,2.90
2022-08-22T12:36:21.410Z,2.17
2022-08-22T12:39:01.583Z,2.95
2022-08-22T12:42:00.821Z,3.15
2022-08-22T12:44:53.456Z,2.78
2022-08-22T12:47:45.111Z,2.90
2022-08-22T12:50:20.323Z,3.10
2022-08-22T12:52:50.650Z,3.47
2022-08-22T12:55:25.271Z,3.10
2022-08-22T12:58:04.101Z,3.25
2022-08-22T13:00:48.884Z,2.75
2022-08-22T13:03:24.196Z,2.33
2022-08-22T13:05:57.025Z,2.53
2022-08-22T13:08:35.879Z,3.42
2022-08-22T13:11:09.826Z,2.95
2022-08-22T13:13:43.456Z,2.45
2022-08-22T13:16:23.697Z,3.47
2022-08-22T13:18:53.990Z,2.90
2022-08-22T13:21:23.161Z,3.20
2022-08-22T13:23:53.742Z,3.80
2022-08-22T13:26:33.742Z,2.67
2022-08-22T13:31:51.972Z,3.17
2022-08-22T13:34:29.318Z,2.67
2022-08-22T13:36:58.550Z,3.00
2022-08-22T13:39:31.270Z,2.07
2022-08-22T13:41:59.344Z,3.05
2022-08-22T13:44:30.089Z,2.75
2022-08-22T13:47:14.287Z,3.40
2022-08-22T13:49:43.232Z,2.78
2022-08-22T13:52:29.077Z,2.30
2022-08-22T13:54:55.926Z,2.75
2022-08-22T13:57:34.819Z,2.55
2022-08-22T14:00:31.298Z,2.58
2022-08-22T14:03:08.303Z,2.75
2022-08-22T14:05:38.186Z,2.97
2022-08-22T14:08:14.944Z,2.33
2022-08-22T14:10:47.517Z,2.40
2022-08-22T14:13:37.493Z,2.30
2022-08-22T14:16:06.525Z,2.80
2022-08-22T14:18:45.559Z,2.45
2022-08-22T14:21:18.318Z,2.40
2022-08-22T14:23:46.273Z,3.38
2022-08-22T14:26:37.431Z,2.20
2022-08-22T14:29:15.931Z,2.80
2022-08-22T14:31:54.382Z,2.95
2022-08-22T14:34:21.223Z,2.13
2022-08-22T14:36:52.999Z,2.65
2022-08-22T14:39:42.949Z,2.67
2022-08-22T14:42:17.611Z,2.33
2022-08-22T14:44:44.885Z,2.15
2022-08-22T14:47:40.354Z,3.03
2022-08-22T14:50:29.657Z,2.42
2022-08-22T14:53:04.680Z,2.38
2022-08-22T14:55:32.257Z,2.47
2022-08-22T14:58:00.422Z,2.72
2022-08-22T15:00:32.386Z,3.20
2022-08-22T15:03:13.798Z,2.25
2022-08-22T15:05:45.535Z,2.40
2022-08-22T15:10:42.331Z,2.30
2022-08-22T15:13:09.993Z,2.78
2022-08-22T15:15:53.519Z,2.45
2022-08-22T15:18:27.275Z,3.30
2022-08-22T15:21:11.269Z,2.58
2022-08-22T15:23:45.347Z,2.45
2022-08-22T15:26:28.085Z,2.58
2022-08-22T15:29:04.361Z,2.20
2022-08-22T15:31:31.323Z,2.03
2022-08-22T15:34:14.410Z,3.10
2022-08-22T15:36:59.464Z,2.70
2022-08-22T15:41:53.286Z,2.63
2022-08-22T15:44:32.348Z,2.83
2022-08-22T15:47:02.293Z,2.42
2022-08-22T15:49:30.233Z,2.83
2022-08-22T15:52:00.852Z,2.60
2022-08-22T15:54:46.895Z,3.17
2022-08-22T15:57:38.759Z,6.78
2022-08-22T16:00:22.577Z,4.90
2022-08-22T16:02:56.561Z,2.85
2022-08-22T16:05:25.950Z,2.33
2022-08-22T16:07:58.085Z,2.50
2022-08-22T16:10:24.687Z,3.17
2022-08-22T16:13:12.122Z,2.75
2022-08-22T16:15:51.332Z,3.30
2022-08-22T16:18:43.190Z,2.78
2022-08-22T16:21:13.458Z,2.63
2022-08-22T16:23:49.648Z,3.03
2022-08-22T16:26:16.478Z,2.50
2022-08-22T16:28:58.200Z,2.67
2022-08-22T16:31:30.621Z,3.72
2022-08-22T16:36:36.339Z,2.78
2022-08-22T16:39:06.973Z,2.60
2022-08-22T16:41:35.526Z,2.50
2022-08-22T16:44:20.504Z,2.33
2022-08-22T16:46:48.426Z,3.00
2022-08-22T16:49:26.502Z,3.63
2022-08-22T16:52:11.333Z,3.25
2022-08-22T16:54:42.061Z,3.10
2022-08-22T16:57:08.969Z,2.95
2022-08-22T16:59:47.688Z,2.78
2022-08-22T17:02:16.790Z,3.25
2022-08-22T17:04:51.387Z,3.13
2022-08-22T17:07:23.957Z,2.80
2022-08-22T17:10:02.729Z,2.50
2022-08-22T17:12:29.465Z,2.33
2022-08-22T17:15:16.736Z,2.97
2022-08-22T17:18:01.140Z,2.95
2022-08-22T17:20:42.067Z,2.92
2022-08-22T17:23:13.304Z,3.58
2022-08-22T17:25:39.603Z,2.60
2022-08-22T17:28:34.051Z,2.97
2022-08-22T17:31:06.022Z,3.30
2022-08-22T17:33:41.442Z,3.13
2022-08-22T17:36:26.773Z,3.20
2022-08-22T17:39:07.179Z,3.28
2022-08-22T17:41:38.090Z,3.42
2022-08-22T17:44:13.397Z,4.28
2022-08-22T17:46:50.660Z,2.88
2022-08-22T17:49:35.569Z,3.10
2022-08-22T17:52:13.986Z,3.08
2022-08-22T17:54:50.626Z,3.33
2022-08-22T17:57:31.790Z,3.38
2022-08-22T18:00:09.900Z,2.92
2022-08-22T18:02:52.755Z,3.30
2022-08-22T18:05:23.118Z,3.83
2022-08-22T18:08:03.891Z,2.97
2022-08-22T18:10:38.481Z,2.72
2022-08-22T18:13:09.891Z,2.47
2022-08-22T18:15:55.501Z,3.08
2022-08-22T18:18:33.751Z,3.17
2022-08-22T18:21:21.325Z,3.28
2022-08-22T18:23:51.849Z,2.75
2022-08-22T18:26:18.571Z,2.80
2022-08-22T18:28:54.431Z,3.03
2022-08-22T18:31:26.738Z,2.80
2022-08-22T18:33:59.582Z,4.65
2022-08-22T18:36:32.486Z,3.00
2022-08-22T18:39:31.765Z,3.00
2022-08-22T18:42:09.297Z,3.72
2022-08-22T18:44:36.656Z,3.08
2022-08-22T18:47:14.990Z,3.22
2022-08-22T18:49:44.040Z,3.38
2022-08-22T18:52:11.032Z,3.42
2022-08-22T18:54:41.810Z,3.45
2022-08-22T18:57:25.092Z,3.22
2022-08-22T19:00:01.291Z,3.33
2022-08-22T19:02:51.135Z,2.75
2022-08-22T19:05:22.358Z,3.45
2022-08-22T19:07:50.923Z,3.00
2022-08-22T19:10:40.250Z,3.00
2022-08-22T19:13:42.062Z,2.85
2022-08-22T19:16:20.843Z,3.13
2022-08-22T19:18:54.331Z,6.20
2022-08-22T19:21:41.148Z,4.07
2022-08-22T19:24:10.631Z,5.80
2022-08-22T19:26:41.620Z,6.80
2022-08-22T19:29:15.903Z,5.72
2022-08-22T19:31:58.046Z,5.30
2022-08-22T19:34:30.262Z,5.00
2022-08-22T19:39:44.216Z,4.97
2022-08-22T19:42:25.527Z,4.32
2022-08-22T19:44:54.592Z,3.65
2022-08-22T19:47:20.910Z,3.47
2022-08-22T19:49:50.237Z,3.58
2022-08-22T19:52:16.508Z,3.72
2022-08-22T19:54:55.219Z,4.00
2022-08-22T19:57:27.836Z,4.25
2022-08-22T20:00:05.979Z,4.50
2022-08-22T20:02:53.178Z,4.25
2022-08-22T20:05:40.755Z,3.70
2022-08-22T20:08:28.559Z,3.97
2022-08-22T20:11:13.827Z,4.53
2022-08-22T20:13:40.454Z,4.10
2022-08-22T20:16:16.366Z,3.88
2022-08-22T20:19:07.075Z,3.95
2022-08-22T20:21:56.734Z,3.72
2022-08-22T20:24:40.215Z,4.05
2022-08-22T20:27:14.479Z,3.75
2022-08-22T20:30:05.932Z,4.07
2022-08-22T20:32:38.554Z,4.13
2022-08-22T20:35:05.558Z,3.50
2022-08-22T20:38:03.208Z,4.15
2022-08-22T20:40:54.981Z,4.40
2022-08-22T20:43:38.183Z,4.10
2022-08-22T20:46:12.775Z,4.20
2022-08-22T20:48:43.850Z,4.40
2022-08-22T20:51:12.820Z,4.30
2022-08-22T20:53:39.207Z,5.53
2022-08-22T20:56:10.344Z,4.38
2022-08-22T20:58:38.698Z,4.55
2022-08-22T21:01:05.896Z,4.50
2022-08-22T21:03:41.352Z,4.43
2022-08-22T21:06:15.665Z,5.13
2022-08-22T21:08:42.981Z,5.03
2022-08-22T21:11:28.354Z,5.75
2022-08-22T21:13:55.455Z,4.82
2022-08-22T21:16:31.211Z,4.43
2022-08-22T21:18:58.406Z,5.38
2022-08-22T21:21:28.696Z,5.22
2022-08-22T21:24:00.547Z,5.57
2022-08-22T21:26:27.278Z,4.68
2022-08-22T21:28:59.919Z,4.80
2022-08-22T21:31:42.747Z,5.70
2022-08-22T21:34:13.850Z,4.65
2022-08-22T21:36:40.493Z,5.35
2022-08-22T21:39:18.194Z,5.15
2022-08-22T21:41:48.770Z,4.45
2022-08-22T21:44:24.249Z,4.60
2022-08-22T21:46:50.704Z,4.85
2022-08-22T21:49:20.498Z,5.00
2022-08-22T21:51:48.057Z,3.97
2022-08-22T21:54:29.343Z,4.22
2022-08-22T21:56:57.399Z,5.28
2022-08-22T21:59:51.091Z,4.68
2022-08-22T22:02:31.481Z,4.57
2022-08-22T22:05:04.955Z,5.60
2022-08-22T22:07:35.055Z,4.90
2022-08-22T22:10:01.428Z,4.28
2022-08-22T22:12:27.739Z,4.75
2022-08-22T22:14:54.059Z,4.50
2022-08-22T22:17:20.368Z,5.18
2022-08-22T22:19:47.100Z,5.65
2022-08-22T22:22:13.681Z,4.55
2022-08-22T22:24:40.118Z,4.68
2022-08-22T22:27:06.590Z,5.47
2022-08-22T22:29:33.139Z,5.40
2022-08-22T22:31:59.471Z,5.63
2022-08-22T22:34:25.786Z,6.05
2022-08-22T22:36:52.438Z,5.72
2022-08-22T22:39:18.823Z,5.07
2022-08-22T22:41:45.124Z,4.88
2022-08-22T22:44:11.459Z,5.60
2022-08-22T22:46:37.767Z,5.35
2022-08-22T22:49:04.118Z,4.97
2022-08-22T22:51:30.405Z,5.38
2022-08-22T22:53:56.811Z,5.07
2022-08-22T22:56:23.646Z,5.07
2022-08-22T22:59:00.991Z,5.35
2022-08-22T23:01:37.876Z,5.72
2022-08-22T23:04:05.824Z,5.55
2022-08-22T23:06:32.962Z,6.00
2022-08-22T23:08:59.318Z,5.70
2022-08-22T23:11:27.366Z,5.60
2022-08-22T23:13:53.716Z,5.93
2022-08-22T23:16:21.768Z,5.50
2022-08-22T23:18:48.130Z,5.55
2022-08-22T23:21:26.277Z,5.93
2022-08-22T23:23:54.167Z,4.90
2022-08-22T23:26:20.476Z,5.47
2022-08-22T23:28:47.135Z,6.30
2022-08-22T23:31:14.951Z,5.68
2022-08-22T23:33:41.777Z,5.00
2022-08-22T23:36:11.962Z,5.50
2022-08-22T23:38:38.391Z,5.35
2022-08-22T23:41:09.687Z,5.50
2022-08-22T23:43:36.691Z,4.60
2022-08-22T23:46:03.037Z,5.25
2022-08-22T23:48:29.403Z,5.70
2022-08-22T23:50:55.782Z,6.00
2022-08-22T23:53:22.091Z,6.13
2022-08-22T23:55:48.411Z,6.60
2022-08-22T23:58:15.909Z,6.20
